Terminal Aerodrome Forecast
Issued by NWS Duluth, MN

Home | Current Version | Previous Version | Text Only | Print | Product List | Glossary On
Versions: 1 2 3 4 5 6 7 8 9 10 11 12 13 14 15 16 17 18 19 20 21 22 23 24 25 26 27
000
FTUS43 KDLH 030422 AAB
TAFDLH
TAF AMD
KDLH 030422Z 0304/0324 12005KT 4SM BR OVC006
      TEMPO 0306/0307 1 1/2SM BR
     FM030700 09007KT 1/2SM FG OVC004
      TEMPO 0308/0312 1/4SM FG OVC001
     FM031300 10008KT 1 1/2SM BR SCT001 OVC030
     FM031600 10010KT 5SM BR SCT008 OVC030=

USA.gov is the U.S. government's official web portal to all federal, state and local government web resources and services.